^^
Station Historical Data
Daily Summary for March 17, 2019 Units:  English    Metric   Both
« Previous Day
Next Day »
Daily Weekly Monthly Yearly Custom
  High: Low: Average:
Temperature: 35.1 °F 17.9 °F 26.3 °F
Dew Point: 28.0 °F 15.7 °F 21.7 °F
Humidity: 93% 72% 83%
Wind Speed: 13.0mph 2.0mph 5.7mph
Wind Gust: 14.0mph - -
Wind- - West
Pressure: 30.41 in 30.22 in -
Precipitation: 0.00 in    
Historical Graphs
 
 
Tabular Data for March 17, 2019
Time Temperature Dew Point Pressure Wind Wind Speed Wind Gust Humidity Rainfall Rate (Hourly) solar Conditions
00:04 22.0 °F 19.5 °F 30.24 in SW 5.0 mph 5.0 mph 90% 0.00 in 0.00 W/m2
00:09 21.9 °F 19.4 °F 30.24 in SW 5.0 mph 6.0 mph 90% 0.00 in 0.00 W/m2
00:14 21.9 °F 19.4 °F 30.24 in WSW 4.0 mph 6.0 mph 90% 0.00 in 0.00 W/m2
00:19 21.8 °F 19.3 °F 30.24 in WSW 4.0 mph 5.0 mph 90% 0.00 in 0.00 W/m2
00:24 22.0 °F 19.5 °F 30.24 in WSW 4.0 mph 5.0 mph 90% 0.00 in 0.00 W/m2
00:29 22.0 °F 19.5 °F 30.24 in WSW 3.0 mph 5.0 mph 90% 0.00 in 0.00 W/m2
00:34 21.9 °F 19.4 °F 30.24 in SW 3.0 mph 4.0 mph 90% 0.00 in 0.00 W/m2
00:39 21.9 °F 19.4 °F 30.24 in SW 3.0 mph 5.0 mph 90% 0.00 in 0.00 W/m2
00:44 21.8 °F 19.3 °F 30.24 in SW 3.0 mph 5.0 mph 90% 0.00 in 0.00 W/m2
00:49 21.7 °F 19.2 °F 30.24 in WSW 2.0 mph 4.0 mph 90% 0.00 in 0.00 W/m2
00:54 21.7 °F 19.5 °F 30.24 in WSW 4.0 mph 4.0 mph 91% 0.00 in 0.00 W/m2
00:59 21.8 °F 19.6 °F 30.24 in WSW 3.0 mph 4.0 mph 91% 0.00 in 0.00 W/m2
01:04 21.7 °F 19.5 °F 30.24 in WSW 4.0 mph 5.0 mph 91% 0.00 in 0.00 W/m2
01:09 21.5 °F 19.3 °F 30.24 in WSW 4.0 mph 5.0 mph 91% 0.00 in 0.00 W/m2
01:14 21.3 °F 19.1 °F 30.24 in WSW 4.0 mph 5.0 mph 91% 0.00 in 0.00 W/m2
01:19 21.0 °F 18.8 °F 30.24 in WSW 3.0 mph 5.0 mph 91% 0.00 in 0.00 W/m2
01:24 20.7 °F 18.5 °F 30.23 in WSW 4.0 mph 5.0 mph 91% 0.00 in 0.00 W/m2
01:29 20.6 °F 18.4 °F 30.23 in WSW 4.0 mph 5.0 mph 91% 0.00 in 0.00 W/m2
01:34 20.5 °F 18.3 °F 30.23 in WSW 3.0 mph 5.0 mph 91% 0.00 in 0.00 W/m2
01:39 20.4 °F 18.2 °F 30.23 in West 4.0 mph 4.0 mph 91% 0.00 in 0.00 W/m2
01:44 20.5 °F 18.5 °F 30.23 in West 4.0 mph 4.0 mph 92% 0.00 in 0.00 W/m2
01:49 20.5 °F 18.5 °F 30.23 in West 4.0 mph 4.0 mph 92% 0.00 in 0.00 W/m2
01:54 20.6 °F 18.6 °F 30.23 in West 3.0 mph 5.0 mph 92% 0.00 in 0.00 W/m2
01:59 20.6 °F 18.6 °F 30.23 in West 4.0 mph 5.0 mph 92% 0.00 in 0.00 W/m2
02:04 20.5 °F 18.5 °F 30.23 in West 4.0 mph 5.0 mph 92% 0.00 in 0.00 W/m2
02:09 20.2 °F 18.0 °F 30.23 in WSW 4.0 mph 5.0 mph 91% 0.00 in 0.00 W/m2
02:14 19.9 °F 17.7 °F 30.23 in WSW 4.0 mph 5.0 mph 91% 0.00 in 0.00 W/m2
02:19 19.5 °F 17.3 °F 30.23 in WSW 5.0 mph 5.0 mph 91% 0.00 in 0.00 W/m2
02:24 19.1 °F 16.9 °F 30.23 in WSW 6.0 mph 6.0 mph 91% 0.00 in 0.00 W/m2
02:29 18.6 °F 16.4 °F 30.23 in WSW 5.0 mph 6.0 mph 91% 0.00 in 0.00 W/m2
02:34 18.1 °F 15.9 °F 30.23 in WSW 5.0 mph 6.0 mph 91% 0.00 in 0.00 W/m2
02:39 17.9 °F 15.7 °F 30.23 in WSW 5.0 mph 6.0 mph 91% 0.00 in 0.00 W/m2
02:44 17.9 °F 16.0 °F 30.23 in WSW 5.0 mph 6.0 mph 92% 0.00 in 0.00 W/m2
02:49 18.2 °F 16.3 °F 30.23 in WSW 5.0 mph 6.0 mph 92% 0.00 in 0.00 W/m2
02:54 18.8 °F 17.1 °F 30.23 in WSW 4.0 mph 6.0 mph 93% 0.00 in 0.00 W/m2
02:59 19.4 °F 17.7 °F 30.23 in West 4.0 mph 6.0 mph 93% 0.00 in 0.00 W/m2
03:04 20.0 °F 18.3 °F 30.23 in WSW 3.0 mph 6.0 mph 93% 0.00 in 0.00 W/m2
03:09 20.3 °F 18.6 °F 30.23 in WSW 4.0 mph 5.0 mph 93% 0.00 in 0.00 W/m2
03:14 20.1 °F 18.1 °F 30.23 in WSW 5.0 mph 5.0 mph 92% 0.00 in 0.00 W/m2
03:19 19.9 °F 17.7 °F 30.23 in WSW 6.0 mph 6.0 mph 91% 0.00 in 0.00 W/m2
03:24 19.5 °F 17.3 °F 30.23 in WSW 5.0 mph 6.0 mph 91% 0.00 in 0.00 W/m2
03:29 19.6 °F 17.7 °F 30.23 in WSW 3.0 mph 6.0 mph 92% 0.00 in 0.00 W/m2
03:34 19.9 °F 18.0 °F 30.23 in West 5.0 mph 6.0 mph 92% 0.00 in 0.00 W/m2
03:39 20.0 °F 18.1 °F 30.23 in WSW 4.0 mph 5.0 mph 92% 0.00 in 0.00 W/m2
03:44 20.0 °F 17.8 °F 30.23 in West 3.0 mph 5.0 mph 91% 0.00 in 0.00 W/m2
03:49 20.1 °F 17.9 °F 30.23 in WSW 4.0 mph 5.0 mph 91% 0.00 in 0.00 W/m2
03:54 20.2 °F 18.0 °F 30.23 in West 2.0 mph 5.0 mph 91% 0.00 in 0.00 W/m2
03:59 20.4 °F 18.2 °F 30.23 in West 2.0 mph 5.0 mph 91% 0.00 in 0.00 W/m2
04:04 20.6 °F 18.4 °F 30.23 in West 2.0 mph 5.0 mph 91% 0.00 in 0.00 W/m2
04:09 20.7 °F 18.5 °F 30.23 in WNW 4.0 mph 5.0 mph 91% 0.00 in 0.00 W/m2
04:14 20.8 °F 18.6 °F 30.23 in NW 4.0 mph 5.0 mph 91% 0.00 in 0.00 W/m2
04:19 20.3 °F 17.8 °F 30.23 in NNW 4.0 mph 5.0 mph 90% 0.00 in 0.00 W/m2
04:24 20.0 °F 17.5 °F 30.23 in NW 4.0 mph 5.0 mph 90% 0.00 in 0.00 W/m2
04:29 19.8 °F 17.3 °F 30.23 in NW 4.0 mph 5.0 mph 90% 0.00 in 0.00 W/m2
04:34 19.9 °F 17.7 °F 30.23 in NW 4.0 mph 5.0 mph 91% 0.00 in 0.00 W/m2
04:39 20.3 °F 18.1 °F 30.23 in WNW 4.0 mph 5.0 mph 91% 0.00 in 0.00 W/m2
04:44 20.9 °F 18.7 °F 30.23 in WNW 3.0 mph 5.0 mph 91% 0.00 in 0.00 W/m2
04:49 20.7 °F 18.2 °F 30.22 in WSW 3.0 mph 4.0 mph 90% 0.00 in 0.00 W/m2
04:54 20.6 °F 18.1 °F 30.22 in WSW 3.0 mph 4.0 mph 90% 0.00 in 0.00 W/m2
04:59 20.6 °F 18.1 °F 30.22 in WSW 4.0 mph 5.0 mph 90% 0.00 in 0.00 W/m2
05:04 20.6 °F 18.1 °F 30.23 in West 5.0 mph 5.0 mph 90% 0.00 in 0.00 W/m2
05:09 20.7 °F 18.2 °F 30.23 in West 4.0 mph 5.0 mph 90% 0.00 in 0.00 W/m2
05:14 20.6 °F 18.1 °F 30.23 in West 5.0 mph 6.0 mph 90% 0.00 in 0.00 W/m2
05:19 20.9 °F 18.4 °F 30.23 in West 4.0 mph 6.0 mph 90% 0.00 in 0.00 W/m2
05:24 21.5 °F 19.0 °F 30.23 in West 4.0 mph 6.0 mph 90% 0.00 in 0.00 W/m2
05:29 21.7 °F 19.0 °F 30.23 in West 4.0 mph 6.0 mph 89% 0.00 in 0.00 W/m2
05:34 21.7 °F 18.7 °F 30.23 in West 3.0 mph 5.0 mph 88% 0.00 in 0.00 W/m2
05:39 21.9 °F 18.9 °F 30.23 in West 3.0 mph 5.0 mph 88% 0.00 in 0.00 W/m2
05:44 22.0 °F 19.0 °F 30.23 in West 2.0 mph 5.0 mph 88% 0.00 in 0.00 W/m2
05:49 21.8 °F 18.5 °F 30.23 in West 5.0 mph 5.0 mph 87% 0.00 in 0.00 W/m2
05:54 21.6 °F 18.3 °F 30.23 in West 5.0 mph 5.0 mph 87% 0.00 in 0.00 W/m2
05:59 21.4 °F 18.1 °F 30.23 in West 4.0 mph 6.0 mph 87% 0.00 in 0.00 W/m2
06:04 21.4 °F 18.4 °F 30.23 in West 5.0 mph 6.0 mph 88% 0.00 in 0.00 W/m2
06:09 21.5 °F 18.5 °F 30.23 in West 4.0 mph 5.0 mph 88% 0.00 in 0.00 W/m2
06:14 21.5 °F 18.2 °F 30.24 in West 4.0 mph 5.0 mph 87% 0.00 in 0.00 W/m2
06:19 21.5 °F 18.2 °F 30.24 in West 3.0 mph 5.0 mph 87% 0.00 in 0.00 W/m2
06:24 21.4 °F 18.1 °F 30.24 in West 4.0 mph 5.0 mph 87% 0.00 in 0.00 W/m2
06:29 21.3 °F 18.0 °F 30.24 in West 2.0 mph 5.0 mph 87% 0.00 in 0.00 W/m2
06:34 21.4 °F 18.1 °F 30.25 in West 3.0 mph 4.0 mph 87% 0.00 in 0.00 W/m2
06:39 21.4 °F 18.1 °F 30.25 in West 3.0 mph 4.0 mph 87% 0.00 in 0.00 W/m2
06:44 21.2 °F 17.9 °F 30.25 in WSW 3.0 mph 4.0 mph 87% 0.00 in 0.00 W/m2
06:49 21.1 °F 17.8 °F 30.25 in WSW 2.0 mph 4.0 mph 87% 0.00 in 0.00 W/m2
06:54 21.1 °F 17.8 °F 30.25 in WSW 4.0 mph 4.0 mph 87% 0.00 in 0.00 W/m2
06:59 20.8 °F 17.5 °F 30.25 in WSW 4.0 mph 4.0 mph 87% 0.00 in 0.00 W/m2
07:04 20.5 °F 17.2 °F 30.25 in WSW 4.0 mph 5.0 mph 87% 0.00 in 0.00 W/m2
07:09 20.3 °F 17.0 °F 30.25 in WSW 4.0 mph 5.0 mph 87% 0.00 in 0.00 W/m2
07:14 20.2 °F 17.2 °F 30.25 in WSW 5.0 mph 6.0 mph 88% 0.00 in 0.00 W/m2
07:19 19.9 °F 16.9 °F 30.25 in WSW 3.0 mph 6.0 mph 88% 0.00 in 0.00 W/m2
07:24 19.9 °F 16.9 °F 30.25 in WSW 4.0 mph 5.0 mph 88% 0.00 in 0.00 W/m2
07:29 19.8 °F 16.8 °F 30.25 in WSW 6.0 mph 6.0 mph 88% 0.00 in 0.00 W/m2
07:34 19.8 °F 16.8 °F 30.25 in WSW 5.0 mph 6.0 mph 88% 0.00 in 0.00 W/m2
07:39 20.0 °F 17.3 °F 30.26 in West 4.0 mph 6.0 mph 89% 0.00 in 0.00 W/m2
07:44 20.0 °F 17.0 °F 30.26 in West 4.0 mph 6.0 mph 88% 0.00 in 0.00 W/m2
07:49 19.9 °F 16.9 °F 30.26 in West 6.0 mph 6.0 mph 88% 0.00 in 5.00 W/m2
07:54 20.0 °F 17.0 °F 30.26 in West 5.0 mph 6.0 mph 88% 0.00 in 9.00 W/m2
07:59 20.2 °F 17.5 °F 30.26 in West 5.0 mph 6.0 mph 89% 0.00 in 11.00 W/m2
08:04 20.3 °F 17.3 °F 30.27 in WNW 6.0 mph 8.0 mph 88% 0.00 in 11.00 W/m2
08:09 20.3 °F 17.3 °F 30.27 in WNW 8.0 mph 8.0 mph 88% 0.00 in 14.00 W/m2
08:14 20.5 °F 17.5 °F 30.27 in WNW 5.0 mph 9.0 mph 88% 0.00 in 16.00 W/m2
08:19 21.2 °F 18.2 °F 30.27 in NW 7.0 mph 9.0 mph 88% 0.00 in 18.00 W/m2
08:24 22.6 °F 19.6 °F 30.27 in NW 6.0 mph 9.0 mph 88% 0.00 in 21.00 W/m2
08:29 23.2 °F 19.9 °F 30.27 in NW 7.0 mph 9.0 mph 87% 0.00 in 21.00 W/m2
08:34 23.4 °F 19.8 °F 30.27 in NW 7.0 mph 9.0 mph 86% 0.00 in 23.00 W/m2
08:39 23.4 °F 19.6 °F 30.27 in WNW 6.0 mph 9.0 mph 85% 0.00 in 33.00 W/m2
08:44 22.8 °F 18.7 °F 30.28 in WNW 5.0 mph 8.0 mph 84% 0.00 in 62.00 W/m2
08:49 22.7 °F 18.9 °F 30.28 in WNW 6.0 mph 8.0 mph 85% 0.00 in 91.00 W/m2
08:54 23.2 °F 19.6 °F 30.28 in NW 8.0 mph 8.0 mph 86% 0.00 in 109.00 W/m2
08:59 23.4 °F 19.6 °F 30.28 in NW 7.0 mph 9.0 mph 85% 0.00 in 128.00 W/m2
09:04 23.8 °F 19.9 °F 30.28 in NW 8.0 mph 10.0 mph 85% 0.00 in 142.00 W/m2
09:09 23.9 °F 19.8 °F 30.29 in NW 8.0 mph 10.0 mph 84% 0.00 in 156.00 W/m2
09:14 24.2 °F 20.3 °F 30.29 in NW 5.0 mph 10.0 mph 85% 0.00 in 156.00 W/m2
09:19 24.0 °F 19.9 °F 30.29 in NW 8.0 mph 10.0 mph 84% 0.00 in 165.00 W/m2
09:24 23.7 °F 19.6 °F 30.30 in NW 10.0 mph 11.0 mph 84% 0.00 in 200.00 W/m2
09:29 23.7 °F 19.6 °F 30.29 in NW 8.0 mph 11.0 mph 84% 0.00 in 239.00 W/m2
09:34 23.6 °F 19.5 °F 30.30 in NW 10.0 mph 12.0 mph 84% 0.00 in 262.00 W/m2
09:39 23.6 °F 19.5 °F 30.30 in NW 10.0 mph 13.0 mph 84% 0.00 in 279.00 W/m2
09:44 23.8 °F 19.9 °F 30.30 in NW 10.0 mph 13.0 mph 85% 0.00 in 302.00 W/m2
09:49 23.9 °F 19.8 °F 30.30 in NW 8.0 mph 13.0 mph 84% 0.00 in 320.00 W/m2
09:54 23.9 °F 19.8 °F 30.31 in NW 9.0 mph 12.0 mph 84% 0.00 in 336.00 W/m2
09:59 24.0 °F 19.9 °F 30.31 in WNW 9.0 mph 14.0 mph 84% 0.00 in 332.00 W/m2
10:04 23.9 °F 19.8 °F 30.31 in NW 8.0 mph 14.0 mph 84% 0.00 in 306.00 W/m2
10:09 23.9 °F 19.8 °F 30.31 in NW 9.0 mph 12.0 mph 84% 0.00 in 306.00 W/m2
10:14 24.0 °F 19.9 °F 30.32 in NW 11.0 mph 13.0 mph 84% 0.00 in 339.00 W/m2
10:19 24.1 °F 20.0 °F 30.32 in WNW 5.0 mph 13.0 mph 84% 0.00 in 369.00 W/m2
10:24 24.2 °F 20.1 °F 30.32 in NW 11.0 mph 12.0 mph 84% 0.00 in 364.00 W/m2
10:29 24.3 °F 20.2 °F 30.32 in WNW 8.0 mph 13.0 mph 84% 0.00 in 359.00 W/m2
10:34 24.3 °F 20.2 °F 30.32 in WNW 10.0 mph 13.0 mph 84% 0.00 in 359.00 W/m2
10:39 24.5 °F 20.4 °F 30.32 in WNW 10.0 mph 13.0 mph 84% 0.00 in 323.00 W/m2
10:44 24.7 °F 20.6 °F 30.33 in WNW 8.0 mph 13.0 mph 84% 0.00 in 292.00 W/m2
10:49 24.9 °F 20.8 °F 30.33 in WNW 10.0 mph 13.0 mph 84% 0.00 in 362.00 W/m2
10:54 25.1 °F 20.7 °F 30.33 in WNW 9.0 mph 13.0 mph 83% 0.00 in 383.00 W/m2
10:59 25.2 °F 20.8 °F 30.33 in NW 11.0 mph 13.0 mph 83% 0.00 in 403.00 W/m2
11:04 25.4 °F 21.0 °F 30.33 in NW 10.0 mph 12.0 mph 83% 0.00 in 397.00 W/m2
11:09 25.4 °F 21.0 °F 30.33 in NW 9.0 mph 12.0 mph 83% 0.00 in 415.00 W/m2
11:14 25.6 °F 21.2 °F 30.33 in NW 6.0 mph 13.0 mph 83% 0.00 in 455.00 W/m2
11:19 25.5 °F 20.8 °F 30.34 in WNW 9.0 mph 13.0 mph 82% 0.00 in 501.00 W/m2
11:24 25.6 °F 20.9 °F 30.34 in WNW 7.0 mph 12.0 mph 82% 0.00 in 552.00 W/m2
11:29 25.9 °F 21.2 °F 30.34 in WNW 8.0 mph 12.0 mph 82% 0.00 in 571.00 W/m2
11:34 26.1 °F 21.4 °F 30.34 in NW 7.0 mph 12.0 mph 82% 0.00 in 582.00 W/m2
11:39 26.2 °F 21.5 °F 30.34 in NW 10.0 mph 12.0 mph 82% 0.00 in 594.00 W/m2
11:44 26.4 °F 21.4 °F 30.34 in NW 7.0 mph 12.0 mph 81% 0.00 in 603.00 W/m2
11:49 26.7 °F 21.7 °F 30.34 in NW 10.0 mph 11.0 mph 81% 0.00 in 613.00 W/m2
11:54 27.0 °F 21.9 °F 30.34 in NNW 7.0 mph 11.0 mph 81% 0.00 in 622.00 W/m2
11:59 27.4 °F 22.3 °F 30.34 in NW 8.0 mph 10.0 mph 81% 0.00 in 633.00 W/m2
12:04 27.8 °F 22.7 °F 30.35 in WNW 6.0 mph 10.0 mph 81% 0.00 in 640.00 W/m2
12:09 28.0 °F 22.6 °F 30.35 in WNW 5.0 mph 8.0 mph 80% 0.00 in 649.00 W/m2
12:14 28.3 °F 23.2 °F 30.35 in NW 6.0 mph 8.0 mph 81% 0.00 in 656.00 W/m2
12:19 28.7 °F 23.0 °F 30.35 in NW 8.0 mph 11.0 mph 79% 0.00 in 664.00 W/m2
12:24 28.7 °F 23.0 °F 30.35 in NW 9.0 mph 11.0 mph 79% 0.00 in 671.00 W/m2
12:29 28.7 °F 23.0 °F 30.35 in WNW 5.0 mph 11.0 mph 79% 0.00 in 679.00 W/m2
12:34 29.2 °F 23.8 °F 30.35 in West 7.0 mph 10.0 mph 80% 0.00 in 684.00 W/m2
12:39 29.3 °F 23.6 °F 30.35 in WNW 6.0 mph 10.0 mph 79% 0.00 in 693.00 W/m2
12:44 29.5 °F 24.1 °F 30.35 in WNW 5.0 mph 10.0 mph 80% 0.00 in 696.00 W/m2
12:49 29.7 °F 24.3 °F 30.35 in West 5.0 mph 9.0 mph 80% 0.00 in 701.00 W/m2
12:54 29.9 °F 24.2 °F 30.35 in NW 8.0 mph 11.0 mph 79% 0.00 in 708.00 W/m2
12:59 30.2 °F 24.5 °F 30.35 in WNW 5.0 mph 11.0 mph 79% 0.00 in 712.00 W/m2
13:04 30.2 °F 24.2 °F 30.35 in NW 7.0 mph 12.0 mph 78% 0.00 in 714.00 W/m2
13:09 30.5 °F 24.5 °F 30.35 in NW 11.0 mph 13.0 mph 78% 0.00 in 721.00 W/m2
13:14 30.7 °F 24.7 °F 30.35 in WNW 10.0 mph 13.0 mph 78% 0.00 in 726.00 W/m2
13:19 30.6 °F 24.6 °F 30.36 in WNW 8.0 mph 12.0 mph 78% 0.00 in 726.00 W/m2
13:24 30.7 °F 24.7 °F 30.36 in WNW 7.0 mph 12.0 mph 78% 0.00 in 729.00 W/m2
13:29 30.8 °F 24.7 °F 30.36 in West 12.0 mph 14.0 mph 78% 0.00 in 729.00 W/m2
13:34 30.8 °F 25.1 °F 30.36 in WNW 11.0 mph 14.0 mph 79% 0.00 in 735.00 W/m2
13:39 30.9 °F 25.2 °F 30.36 in NW 10.0 mph 12.0 mph 79% 0.00 in 733.00 W/m2
13:44 31.0 °F 25.2 °F 30.36 in WNW 8.0 mph 12.0 mph 79% 0.00 in 735.00 W/m2
13:49 31.3 °F 25.5 °F 30.36 in WNW 8.0 mph 12.0 mph 79% 0.00 in 737.00 W/m2
13:54 31.4 °F 25.3 °F 30.36 in WNW 10.0 mph 14.0 mph 78% 0.00 in 738.00 W/m2
13:59 31.6 °F 25.5 °F 30.36 in WNW 10.0 mph 14.0 mph 78% 0.00 in 738.00 W/m2
14:04 31.7 °F 25.3 °F 30.36 in NW 9.0 mph 13.0 mph 77% 0.00 in 737.00 W/m2
14:09 31.6 °F 25.5 °F 30.36 in WNW 9.0 mph 13.0 mph 78% 0.00 in 735.00 W/m2
14:14 31.9 °F 25.5 °F 30.36 in NW 12.0 mph 13.0 mph 77% 0.00 in 733.00 W/m2
14:19 32.1 °F 25.7 °F 30.36 in WNW 9.0 mph 13.0 mph 77% 0.00 in 731.00 W/m2
14:24 32.3 °F 25.9 °F 30.36 in WNW 11.0 mph 13.0 mph 77% 0.00 in 731.00 W/m2
14:29 32.5 °F 25.8 °F 30.36 in WNW 7.0 mph 13.0 mph 76% 0.00 in 729.00 W/m2
14:34 32.6 °F 25.6 °F 30.36 in NW 9.0 mph 13.0 mph 75% 0.00 in 726.00 W/m2
14:39 32.8 °F 25.4 °F 30.36 in NW 11.0 mph 14.0 mph 74% 0.00 in 724.00 W/m2
14:44 32.9 °F 25.2 °F 30.36 in NW 13.0 mph 14.0 mph 73% 0.00 in 719.00 W/m2
14:49 33.0 °F 25.3 °F 30.36 in WNW 11.0 mph 14.0 mph 73% 0.00 in 715.00 W/m2
14:54 33.2 °F 25.5 °F 30.36 in WNW 9.0 mph 14.0 mph 73% 0.00 in 712.00 W/m2
14:59 33.2 °F 25.5 °F 30.36 in NW 7.0 mph 12.0 mph 73% 0.00 in 705.00 W/m2
15:04 33.2 °F 25.5 °F 30.36 in WNW 8.0 mph 12.0 mph 73% 0.00 in 700.00 W/m2
15:09 33.3 °F 25.9 °F 30.36 in NW 6.0 mph 12.0 mph 74% 0.00 in 694.00 W/m2
15:14 33.2 °F 26.1 °F 30.36 in WNW 9.0 mph 11.0 mph 75% 0.00 in 687.00 W/m2
15:19 33.1 °F 26.0 °F 30.36 in WNW 10.0 mph 11.0 mph 75% 0.00 in 682.00 W/m2
15:24 33.1 °F 26.0 °F 30.36 in WNW 9.0 mph 11.0 mph 75% 0.00 in 675.00 W/m2
15:29 33.2 °F 25.8 °F 30.36 in West 8.0 mph 12.0 mph 74% 0.00 in 668.00 W/m2
15:34 33.3 °F 26.2 °F 30.36 in WNW 10.0 mph 12.0 mph 75% 0.00 in 659.00 W/m2
15:39 33.4 °F 26.0 °F 30.36 in WNW 8.0 mph 12.0 mph 74% 0.00 in 652.00 W/m2
15:44 33.7 °F 26.6 °F 30.36 in West 6.0 mph 10.0 mph 75% 0.00 in 643.00 W/m2
15:49 33.7 °F 26.9 °F 30.36 in West 7.0 mph 9.0 mph 76% 0.00 in 635.00 W/m2
15:54 33.9 °F 27.1 °F 30.37 in West 5.0 mph 8.0 mph 76% 0.00 in 628.00 W/m2
15:59 34.2 °F 27.4 °F 30.37 in West 7.0 mph 9.0 mph 76% 0.00 in 619.00 W/m2
16:04 34.2 °F 27.4 °F 30.37 in West 5.0 mph 9.0 mph 76% 0.00 in 608.00 W/m2
16:09 34.2 °F 27.4 °F 30.37 in West 7.0 mph 8.0 mph 76% 0.00 in 603.00 W/m2
16:14 34.2 °F 27.4 °F 30.37 in West 6.0 mph 9.0 mph 76% 0.00 in 587.00 W/m2
16:19 34.4 °F 27.6 °F 30.37 in West 7.0 mph 9.0 mph 76% 0.00 in 577.00 W/m2
16:24 34.6 °F 27.8 °F 30.37 in WNW 8.0 mph 9.0 mph 76% 0.00 in 566.00 W/m2
16:29 34.8 °F 28.0 °F 30.37 in West 5.0 mph 9.0 mph 76% 0.00 in 559.00 W/m2
16:34 34.8 °F 28.0 °F 30.37 in West 5.0 mph 9.0 mph 76% 0.00 in 547.00 W/m2
16:39 34.8 °F 27.7 °F 30.37 in West 5.0 mph 11.0 mph 75% 0.00 in 536.00 W/m2
16:44 34.6 °F 27.5 °F 30.37 in West 10.0 mph 11.0 mph 75% 0.00 in 522.00 W/m2
16:49 34.6 °F 27.8 °F 30.37 in West 9.0 mph 11.0 mph 76% 0.00 in 510.00 W/m2
16:54 34.6 °F 27.8 °F 30.38 in West 7.0 mph 11.0 mph 76% 0.00 in 497.00 W/m2
16:59 34.7 °F 27.6 °F 30.38 in West 8.0 mph 11.0 mph 75% 0.00 in 487.00 W/m2
17:04 34.8 °F 27.7 °F 30.38 in West 8.0 mph 11.0 mph 75% 0.00 in 473.00 W/m2
17:09 34.9 °F 27.8 °F 30.38 in West 8.0 mph 11.0 mph 75% 0.00 in 461.00 W/m2
17:14 34.9 °F 27.8 °F 30.38 in West 9.0 mph 11.0 mph 75% 0.00 in 445.00 W/m2
17:19 34.9 °F 27.8 °F 30.38 in West 6.0 mph 11.0 mph 75% 0.00 in 431.00 W/m2
17:24 34.8 °F 27.7 °F 30.38 in West 7.0 mph 11.0 mph 75% 0.00 in 417.00 W/m2
17:29 35.0 °F 27.9 °F 30.38 in West 8.0 mph 11.0 mph 75% 0.00 in 401.00 W/m2
17:34 35.1 °F 27.6 °F 30.38 in West 7.0 mph 11.0 mph 74% 0.00 in 388.00 W/m2
17:39 35.1 °F 27.6 °F 30.38 in West 6.0 mph 10.0 mph 74% 0.00 in 374.00 W/m2
17:44 35.0 °F 27.9 °F 30.38 in West 8.0 mph 10.0 mph 75% 0.00 in 360.00 W/m2
17:49 35.0 °F 27.9 °F 30.38 in West 7.0 mph 9.0 mph 75% 0.00 in 345.00 W/m2
17:54 34.8 °F 27.7 °F 30.38 in West 6.0 mph 10.0 mph 75% 0.00 in 329.00 W/m2
17:59 34.8 °F 27.4 °F 30.38 in West 9.0 mph 10.0 mph 74% 0.00 in 313.00 W/m2
18:04 34.8 °F 27.7 °F 30.38 in WNW 9.0 mph 10.0 mph 75% 0.00 in 294.00 W/m2
18:09 34.6 °F 27.5 °F 30.38 in West 7.0 mph 10.0 mph 75% 0.00 in 279.00 W/m2
18:14 34.5 °F 27.7 °F 30.38 in West 8.0 mph 10.0 mph 76% 0.00 in 258.00 W/m2
18:19 34.4 °F 27.6 °F 30.38 in West 8.0 mph 10.0 mph 76% 0.00 in 237.00 W/m2
18:24 34.4 °F 27.6 °F 30.39 in WNW 5.0 mph 10.0 mph 76% 0.00 in 216.00 W/m2
18:29 34.4 °F 27.3 °F 30.39 in West 7.0 mph 10.0 mph 75% 0.00 in 197.00 W/m2
18:34 34.4 °F 27.3 °F 30.39 in West 9.0 mph 9.0 mph 75% 0.00 in 176.00 W/m2
18:39 34.6 °F 27.2 °F 30.39 in West 7.0 mph 10.0 mph 74% 0.00 in 155.00 W/m2
18:44 34.7 °F 26.9 °F 30.39 in West 7.0 mph 10.0 mph 73% 0.00 in 139.00 W/m2
18:49 34.6 °F 26.8 °F 30.39 in WNW 8.0 mph 9.0 mph 73% 0.00 in 123.00 W/m2
18:54 34.6 °F 26.5 °F 30.39 in WNW 6.0 mph 9.0 mph 72% 0.00 in 104.00 W/m2
18:59 34.4 °F 26.3 °F 30.39 in WNW 7.0 mph 9.0 mph 72% 0.00 in 90.00 W/m2
19:04 34.3 °F 26.2 °F 30.39 in WNW 5.0 mph 9.0 mph 72% 0.00 in 70.00 W/m2
19:09 34.2 °F 26.1 °F 30.39 in West 6.0 mph 8.0 mph 72% 0.00 in 58.00 W/m2
19:14 34.0 °F 25.9 °F 30.39 in WNW 5.0 mph 7.0 mph 72% 0.00 in 39.00 W/m2
19:19 33.7 °F 26.0 °F 30.39 in West 4.0 mph 7.0 mph 73% 0.00 in 33.00 W/m2
19:24 33.6 °F 25.9 °F 30.39 in West 4.0 mph 6.0 mph 73% 0.00 in 23.00 W/m2
19:29 33.1 °F 25.4 °F 30.39 in WNW 4.0 mph 6.0 mph 73% 0.00 in 16.00 W/m2
19:34 32.8 °F 25.4 °F 30.39 in NW 5.0 mph 6.0 mph 74% 0.00 in 12.00 W/m2
19:39 32.7 °F 25.3 °F 30.39 in WNW 4.0 mph 6.0 mph 74% 0.00 in 11.00 W/m2
19:44 32.4 °F 25.0 °F 30.39 in WNW 5.0 mph 6.0 mph 74% 0.00 in 7.00 W/m2
19:49 32.1 °F 25.1 °F 30.39 in WNW 4.0 mph 6.0 mph 75% 0.00 in 5.00 W/m2
19:54 31.9 °F 24.9 °F 30.39 in WNW 5.0 mph 6.0 mph 75% 0.00 in 0.00 W/m2
19:59 31.6 °F 24.9 °F 30.39 in WNW 4.0 mph 6.0 mph 76% 0.00 in 0.00 W/m2
20:04 31.4 °F 24.7 °F 30.39 in NW 3.0 mph 6.0 mph 76% 0.00 in 0.00 W/m2
20:09 31.0 °F 24.3 °F 30.39 in NW 4.0 mph 5.0 mph 76% 0.00 in 0.00 W/m2
20:14 30.5 °F 23.8 °F 30.39 in NW 4.0 mph 5.0 mph 76% 0.00 in 0.00 W/m2
20:19 30.2 °F 23.9 °F 30.39 in NW 4.0 mph 5.0 mph 77% 0.00 in 0.00 W/m2
20:24 30.5 °F 24.5 °F 30.39 in NW 4.0 mph 5.0 mph 78% 0.00 in 0.00 W/m2
20:29 30.6 °F 24.2 °F 30.40 in NW 4.0 mph 5.0 mph 77% 0.00 in 0.00 W/m2
20:34 30.4 °F 23.7 °F 30.40 in NW 4.0 mph 5.0 mph 76% 0.00 in 0.00 W/m2
20:39 30.1 °F 23.8 °F 30.40 in WNW 6.0 mph 7.0 mph 77% 0.00 in 0.00 W/m2
20:44 29.6 °F 23.0 °F 30.40 in WSW 4.0 mph 7.0 mph 76% 0.00 in 0.00 W/m2
20:49 28.6 °F 22.3 °F 30.40 in WSW 5.0 mph 6.0 mph 77% 0.00 in 0.00 W/m2
20:54 27.6 °F 21.9 °F 30.40 in WSW 4.0 mph 5.0 mph 79% 0.00 in 0.00 W/m2
20:59 26.8 °F 21.5 °F 30.40 in West 5.0 mph 5.0 mph 80% 0.00 in 0.00 W/m2
21:04 26.7 °F 21.9 °F 30.40 in West 5.0 mph 5.0 mph 82% 0.00 in 0.00 W/m2
21:09 26.9 °F 22.4 °F 30.40 in West 5.0 mph 5.0 mph 83% 0.00 in 0.00 W/m2
21:14 27.1 °F 22.6 °F 30.40 in West 4.0 mph 5.0 mph 83% 0.00 in 0.00 W/m2
21:19 27.0 °F 22.2 °F 30.40 in West 4.0 mph 5.0 mph 82% 0.00 in 0.00 W/m2
21:24 26.7 °F 21.9 °F 30.40 in WNW 3.0 mph 5.0 mph 82% 0.00 in 0.00 W/m2
21:29 26.8 °F 22.3 °F 30.40 in WNW 3.0 mph 5.0 mph 83% 0.00 in 0.00 W/m2
21:34 27.1 °F 22.6 °F 30.39 in WNW 3.0 mph 4.0 mph 83% 0.00 in 0.00 W/m2
21:39 27.1 °F 22.3 °F 30.40 in WNW 4.0 mph 4.0 mph 82% 0.00 in 0.00 W/m2
21:44 26.9 °F 22.1 °F 30.40 in West 4.0 mph 4.0 mph 82% 0.00 in 0.00 W/m2
21:49 26.7 °F 21.9 °F 30.40 in West 3.0 mph 4.0 mph 82% 0.00 in 0.00 W/m2
21:54 26.5 °F 21.7 °F 30.40 in West 4.0 mph 4.0 mph 82% 0.00 in 0.00 W/m2
21:59 26.3 °F 21.8 °F 30.40 in West 2.0 mph 4.0 mph 83% 0.00 in 0.00 W/m2
22:04 26.2 °F 21.7 °F 30.40 in West 4.0 mph 4.0 mph 83% 0.00 in 0.00 W/m2
22:09 26.0 °F 21.5 °F 30.40 in West 3.0 mph 5.0 mph 83% 0.00 in 0.00 W/m2
22:14 25.9 °F 21.4 °F 30.40 in West 4.0 mph 5.0 mph 83% 0.00 in 0.00 W/m2
22:19 25.6 °F 21.2 °F 30.40 in West 3.0 mph 4.0 mph 83% 0.00 in 0.00 W/m2
22:24 25.3 °F 20.9 °F 30.40 in West 3.0 mph 5.0 mph 83% 0.00 in 0.00 W/m2
22:29 25.1 °F 20.9 °F 30.40 in West 2.0 mph 5.0 mph 84% 0.00 in 0.00 W/m2
22:34 24.9 °F 20.8 °F 30.40 in West 2.0 mph 5.0 mph 84% 0.00 in 0.00 W/m2
22:39 24.7 °F 20.6 °F 30.40 in West 2.0 mph 4.0 mph 84% 0.00 in 0.00 W/m2
22:44 24.6 °F 20.7 °F 30.40 in West 2.0 mph 4.0 mph 85% 0.00 in 0.00 W/m2
22:49 24.7 °F 21.1 °F 30.40 in West 2.0 mph 3.0 mph 86% 0.00 in 0.00 W/m2
22:54 24.9 °F 21.3 °F 30.40 in West 3.0 mph 3.0 mph 86% 0.00 in 0.00 W/m2
22:59 24.9 °F 21.3 °F 30.40 in West 3.0 mph 3.0 mph 86% 0.00 in 0.00 W/m2
23:04 25.0 °F 21.4 °F 30.40 in West 3.0 mph 3.0 mph 86% 0.00 in 0.00 W/m2
23:09 25.2 °F 21.6 °F 30.40 in WNW 4.0 mph 5.0 mph 86% 0.00 in 0.00 W/m2
23:14 25.2 °F 21.3 °F 30.40 in WNW 4.0 mph 5.0 mph 85% 0.00 in 0.00 W/m2
23:19 25.2 °F 21.6 °F 30.40 in WNW 3.0 mph 4.0 mph 86% 0.00 in 0.00 W/m2
23:24 25.3 °F 21.7 °F 30.40 in WNW 3.0 mph 4.0 mph 86% 0.00 in 0.00 W/m2
23:29 25.2 °F 21.6 °F 30.40 in WNW 4.0 mph 4.0 mph 86% 0.00 in 0.00 W/m2
23:34 25.0 °F 21.1 °F 30.40 in WNW 4.0 mph 6.0 mph 85% 0.00 in 0.00 W/m2
23:39 25.1 °F 21.5 °F 30.40 in WNW 5.0 mph 6.0 mph 86% 0.00 in 0.00 W/m2
23:44 25.1 °F 21.2 °F 30.40 in WNW 4.0 mph 6.0 mph 85% 0.00 in 0.00 W/m2
23:49 24.8 °F 20.9 °F 30.40 in West 4.0 mph 6.0 mph 85% 0.00 in 0.00 W/m2
23:54 24.5 °F 20.6 °F 30.40 in West 6.0 mph 6.0 mph 85% 0.00 in 0.00 W/m2
23:59 23.9 °F 19.8 °F 30.41 in WSW 5.0 mph 6.0 mph 84% 0.00 in 0.00 W/m2
Bismarck, North Dakota, USA
Compliments of Weather Underground - 4 mb